createdAt,value
2019-03-25T00:00:15.775Z,977.39
2019-03-25T00:01:15.775Z,977.37
2019-03-25T00:02:15.769Z,977.35
2019-03-25T00:03:15.798Z,977.37
2019-03-25T00:04:15.759Z,977.37
2019-03-25T00:05:15.758Z,977.36
2019-03-25T00:06:15.750Z,977.39
2019-03-25T00:07:15.749Z,977.38
2019-03-25T00:08:15.773Z,977.39
2019-03-25T00:09:15.740Z,977.33
2019-03-25T00:10:15.742Z,977.29
2019-03-25T00:11:15.761Z,977.30
2019-03-25T00:12:15.729Z,977.29
2019-03-25T00:13:15.725Z,977.28
2019-03-25T00:14:15.748Z,977.27
2019-03-25T00:15:15.725Z,977.26
2019-03-25T00:16:15.715Z,977.28
2019-03-25T00:17:15.729Z,977.26
2019-03-25T00:18:15.707Z,977.24
2019-03-25T00:19:15.727Z,977.21
2019-03-25T00:20:15.702Z,977.21
2019-03-25T00:21:15.692Z,977.14
2019-03-25T00:22:15.690Z,977.11
2019-03-25T00:23:15.686Z,977.11
2019-03-25T00:24:15.707Z,977.09
2019-03-25T00:25:15.675Z,977.03
2019-03-25T00:26:15.666Z,976.97
2019-03-25T00:27:15.670Z,976.98
2019-03-25T00:28:15.664Z,976.94
2019-03-25T00:29:15.687Z,976.89
2019-03-25T00:30:15.650Z,976.89
2019-03-25T00:31:15.647Z,976.89
2019-03-25T00:32:15.646Z,976.91
2019-03-25T00:33:15.639Z,976.91
2019-03-25T00:34:15.748Z,976.86
2019-03-25T00:35:15.631Z,976.83
2019-03-25T00:36:15.628Z,976.82
2019-03-25T00:37:15.624Z,976.80
2019-03-25T00:38:15.614Z,976.79
2019-03-25T00:39:15.645Z,976.75
2019-03-25T00:40:15.611Z,976.75
2019-03-25T00:41:15.605Z,976.71
2019-03-25T00:42:15.599Z,976.72
2019-03-25T00:43:15.623Z,976.71
2019-03-25T00:44:15.590Z,976.68
2019-03-25T00:45:15.583Z,976.71
2019-03-25T00:46:15.614Z,976.69
2019-03-25T00:47:15.578Z,976.70
2019-03-25T00:48:15.575Z,976.70
2019-03-25T00:49:15.594Z,976.65
2019-03-25T00:50:15.562Z,976.64
2019-03-25T00:51:15.557Z,976.66
2019-03-25T00:52:15.550Z,976.67
2019-03-25T00:53:15.546Z,976.64
2019-03-25T00:54:15.573Z,976.59
2019-03-25T00:55:15.542Z,976.56
2019-03-25T00:56:15.527Z,976.58
2019-03-25T00:57:15.535Z,976.58
2019-03-25T00:58:15.523Z,976.58
2019-03-25T00:59:15.542Z,976.55
2019-03-25T01:00:15.506Z,976.58
2019-03-25T01:01:15.507Z,976.56
2019-03-25T01:02:15.504Z,976.50
2019-03-25T01:03:15.494Z,976.51
2019-03-25T01:04:15.518Z,976.48
2019-03-25T01:05:15.491Z,976.50
2019-03-25T01:06:15.487Z,976.48
2019-03-25T01:07:15.478Z,976.49
2019-03-25T01:08:15.474Z,976.51
2019-03-25T01:09:15.499Z,976.47
2019-03-25T01:10:15.461Z,976.51
2019-03-25T01:11:15.457Z,976.51
2019-03-25T01:12:15.451Z,976.48
2019-03-25T01:13:15.446Z,976.48
2019-03-25T01:14:15.511Z,976.48
2019-03-25T01:15:15.442Z,976.50
2019-03-25T01:16:15.431Z,976.47
2019-03-25T01:17:15.426Z,976.48
2019-03-25T01:18:17.052Z,976.49
2019-03-25T01:19:15.445Z,976.45
2019-03-25T01:20:15.445Z,976.45
2019-03-25T01:21:15.409Z,976.44
2019-03-25T01:22:15.402Z,976.41
2019-03-25T01:23:15.398Z,976.40
2019-03-25T01:24:15.423Z,976.39
2019-03-25T01:25:15.386Z,976.39
2019-03-25T01:26:15.383Z,976.36
2019-03-25T01:27:15.377Z,976.35
2019-03-25T01:28:15.368Z,976.30
2019-03-25T01:29:15.390Z,976.31
2019-03-25T01:30:15.369Z,976.28
2019-03-25T01:31:15.358Z,976.31
2019-03-25T01:32:15.354Z,976.29
2019-03-25T01:33:15.349Z,976.33
2019-03-25T01:34:15.369Z,976.30
2019-03-25T01:35:15.336Z,976.33
2019-03-25T01:36:15.333Z,976.33
2019-03-25T01:37:15.326Z,976.28
2019-03-25T01:38:15.323Z,976.29
2019-03-25T01:39:15.405Z,976.31
2019-03-25T01:40:15.310Z,976.26
2019-03-25T01:41:15.302Z,976.30
2019-03-25T01:42:15.307Z,976.28
2019-03-25T01:43:15.291Z,976.31
2019-03-25T01:44:15.320Z,976.29
2019-03-25T01:45:15.286Z,976.29
2019-03-25T01:46:15.281Z,976.25
2019-03-25T01:47:15.271Z,976.23
2019-03-25T01:48:15.267Z,976.21
2019-03-25T01:49:15.294Z,976.19
2019-03-25T01:50:15.259Z,976.23
2019-03-25T01:51:15.254Z,976.22
2019-03-25T01:52:15.245Z,976.19
2019-03-25T01:53:15.250Z,976.21
2019-03-25T01:54:15.266Z,976.20
2019-03-25T01:55:15.234Z,976.18
2019-03-25T01:56:15.226Z,976.14
2019-03-25T01:57:15.222Z,976.16
2019-03-25T01:58:15.219Z,976.14
2019-03-25T01:59:15.314Z,976.09
2019-03-25T02:00:15.206Z,976.17
2019-03-25T02:01:15.205Z,976.10
2019-03-25T02:02:15.202Z,976.09
2019-03-25T02:03:15.186Z,976.13
2019-03-25T02:04:15.215Z,976.14
2019-03-25T02:05:15.179Z,976.11
2019-03-25T02:06:15.178Z,976.08
2019-03-25T02:07:15.169Z,976.13
2019-03-25T02:08:15.171Z,976.10
2019-03-25T02:09:15.191Z,976.06
2019-03-25T02:10:15.151Z,976.09
2019-03-25T02:11:15.148Z,976.07
2019-03-25T02:12:15.142Z,976.08
2019-03-25T02:13:15.138Z,976.03
2019-03-25T02:14:15.164Z,975.99
2019-03-25T02:15:15.127Z,976.01
2019-03-25T02:16:15.126Z,975.98
2019-03-25T02:17:15.119Z,975.95
2019-03-25T02:18:15.110Z,975.95
2019-03-25T02:19:15.143Z,975.91
2019-03-25T02:20:25.856Z,975.88
2019-03-25T02:21:15.097Z,975.82
2019-03-25T02:22:15.087Z,975.82
2019-03-25T02:23:15.087Z,975.82
2019-03-25T02:24:15.172Z,975.81
2019-03-25T02:25:24.893Z,975.82
2019-03-25T02:26:15.075Z,975.80
2019-03-25T02:27:15.065Z,975.79
2019-03-25T02:28:15.059Z,975.76
2019-03-25T02:29:15.090Z,975.79
2019-03-25T02:30:15.054Z,975.75
2019-03-25T02:31:15.047Z,975.74
2019-03-25T02:32:15.039Z,975.76
2019-03-25T02:33:15.034Z,975.76
2019-03-25T02:34:15.055Z,975.73
2019-03-25T02:35:15.033Z,975.75
2019-03-25T02:36:15.023Z,975.75
2019-03-25T02:37:15.021Z,975.74
2019-03-25T02:38:15.012Z,975.73
2019-03-25T02:39:15.032Z,975.70
2019-03-25T02:40:15.023Z,975.67
2019-03-25T02:41:14.995Z,975.68
2019-03-25T02:42:14.990Z,975.68
2019-03-25T02:43:14.988Z,975.72
2019-03-25T02:44:14.978Z,975.72
2019-03-25T02:45:15.005Z,975.71
2019-03-25T02:46:14.972Z,975.69
2019-03-25T02:47:14.964Z,975.70
2019-03-25T02:48:14.961Z,975.72
2019-03-25T02:49:14.955Z,975.68
2019-03-25T02:50:14.983Z,975.67
2019-03-25T02:51:14.939Z,975.64
2019-03-25T02:52:14.937Z,975.59
2019-03-25T02:53:14.941Z,975.55
2019-03-25T02:54:14.935Z,975.57
2019-03-25T02:55:14.955Z,975.53
2019-03-25T02:56:14.923Z,975.55
2019-03-25T02:57:14.913Z,975.55
2019-03-25T02:58:14.909Z,975.47
2019-03-25T02:59:14.898Z,975.43
2019-03-25T03:00:14.928Z,975.42
2019-03-25T03:01:14.894Z,975.44
2019-03-25T03:02:14.895Z,975.40
2019-03-25T03:03:14.887Z,975.38
2019-03-25T03:04:14.883Z,975.39
2019-03-25T03:05:14.897Z,975.36
2019-03-25T03:06:14.877Z,975.37
2019-03-25T03:07:14.863Z,975.38
2019-03-25T03:08:14.863Z,975.35
2019-03-25T03:09:14.850Z,975.32
2019-03-25T03:10:14.877Z,975.32
2019-03-25T03:11:14.842Z,975.32
2019-03-25T03:12:14.832Z,975.30
2019-03-25T03:13:14.843Z,975.29
2019-03-25T03:14:15.458Z,975.29
2019-03-25T03:15:14.856Z,975.24
2019-03-25T03:16:14.812Z,975.22
2019-03-25T03:17:14.817Z,975.18
2019-03-25T03:18:14.812Z,975.16
2019-03-25T03:19:14.807Z,975.16
2019-03-25T03:20:14.830Z,975.13
2019-03-25T03:21:14.789Z,975.15
2019-03-25T03:22:14.787Z,975.15
2019-03-25T03:23:14.803Z,975.17
2019-03-25T03:24:14.773Z,975.16
2019-03-25T03:25:14.790Z,975.14
2019-03-25T03:26:14.763Z,975.11
2019-03-25T03:27:14.775Z,975.09
2019-03-25T03:28:14.761Z,975.10
2019-03-25T03:29:14.749Z,975.11
2019-03-25T03:30:36.595Z,975.13
2019-03-25T03:31:14.739Z,975.07
2019-03-25T03:32:14.738Z,975.11
2019-03-25T03:33:14.728Z,975.06
2019-03-25T03:34:14.719Z,975.09
2019-03-25T03:35:14.750Z,975.05
2019-03-25T03:36:14.705Z,975.00
2019-03-25T03:37:14.711Z,975.02
2019-03-25T03:38:14.695Z,974.97
2019-03-25T03:39:14.699Z,975.00
2019-03-25T03:40:14.712Z,974.96
2019-03-25T03:41:14.710Z,974.95
2019-03-25T03:42:14.677Z,974.90
2019-03-25T03:43:14.677Z,974.89
2019-03-25T03:44:14.666Z,974.87
2019-03-25T03:45:14.663Z,974.91
2019-03-25T03:46:14.682Z,974.93
2019-03-25T03:47:14.651Z,974.83
2019-03-25T03:48:14.644Z,974.91
2019-03-25T03:49:14.641Z,974.87
2019-03-25T03:50:14.633Z,974.89
2019-03-25T03:51:14.656Z,974.85
2019-03-25T03:52:14.622Z,974.85
2019-03-25T03:53:14.617Z,974.84
2019-03-25T03:54:14.614Z,974.84
2019-03-25T03:55:14.613Z,974.81
2019-03-25T03:56:14.719Z,974.77
2019-03-25T03:57:14.603Z,974.79
2019-03-25T03:58:14.591Z,974.72
2019-03-25T03:59:14.584Z,974.70
2019-03-25T04:00:14.585Z,974.67
2019-03-25T04:01:14.601Z,974.67
2019-03-25T04:02:14.569Z,974.66
2019-03-25T04:03:14.566Z,974.65
2019-03-25T04:04:14.557Z,974.66
2019-03-25T04:05:14.555Z,974.65
2019-03-25T04:06:14.576Z,974.67
2019-03-25T04:07:14.543Z,974.66
2019-03-25T04:08:14.537Z,974.64
2019-03-25T04:09:14.530Z,974.68
2019-03-25T04:10:14.525Z,974.67
2019-03-25T04:11:14.545Z,974.70
2019-03-25T04:12:14.512Z,974.72
2019-03-25T04:13:14.507Z,974.72
2019-03-25T04:14:14.694Z,974.69
2019-03-25T04:15:14.501Z,974.74
2019-03-25T04:16:14.517Z,974.68
2019-03-25T04:17:14.481Z,974.69
2019-03-25T04:18:14.481Z,974.64
2019-03-25T04:19:14.484Z,974.62
2019-03-25T04:20:14.470Z,974.65
2019-03-25T04:21:14.491Z,974.66
2019-03-25T04:22:14.461Z,974.64
2019-03-25T04:23:14.458Z,974.63
2019-03-25T04:24:14.449Z,974.65
2019-03-25T04:25:14.440Z,974.67
2019-03-25T04:26:27.756Z,974.66
2019-03-25T04:27:14.430Z,974.63
2019-03-25T04:28:14.425Z,974.61
2019-03-25T04:29:14.416Z,974.59
2019-03-25T04:30:14.417Z,974.63
2019-03-25T04:31:14.435Z,974.63
2019-03-25T04:32:14.405Z,974.61
2019-03-25T04:33:14.396Z,974.59
2019-03-25T04:34:14.389Z,974.60
2019-03-25T04:35:14.387Z,974.59
2019-03-25T04:36:14.403Z,974.56
2019-03-25T04:37:14.378Z,974.53
2019-03-25T04:38:14.367Z,974.56
2019-03-25T04:39:14.364Z,974.53
2019-03-25T04:40:14.389Z,974.58
2019-03-25T04:41:14.350Z,974.59
2019-03-25T04:42:14.382Z,974.60
2019-03-25T04:43:14.348Z,974.63
2019-03-25T04:44:14.332Z,974.66
2019-03-25T04:45:14.326Z,974.60
2019-03-25T04:46:14.351Z,974.56
2019-03-25T04:47:14.316Z,974.57
2019-03-25T04:48:14.312Z,974.53
2019-03-25T04:49:14.306Z,974.52
2019-03-25T04:50:14.307Z,974.47
2019-03-25T04:51:14.331Z,974.40
2019-03-25T04:52:14.287Z,974.32
2019-03-25T04:53:14.283Z,974.28
2019-03-25T04:54:14.281Z,974.29
2019-03-25T04:55:14.275Z,974.36
2019-03-25T04:56:14.295Z,974.38
2019-03-25T04:57:14.263Z,974.33
2019-03-25T04:58:14.262Z,974.32
2019-03-25T04:59:14.253Z,974.27
2019-03-25T05:00:14.244Z,974.30
2019-03-25T05:01:14.272Z,974.23
2019-03-25T05:02:14.264Z,974.22
2019-03-25T05:03:14.232Z,974.16
2019-03-25T05:04:14.223Z,974.14
2019-03-25T05:05:14.236Z,974.11
2019-03-25T05:06:14.271Z,974.07
2019-03-25T05:07:14.236Z,974.14
2019-03-25T05:08:14.204Z,974.11
2019-03-25T05:09:14.199Z,974.05
2019-03-25T05:10:14.195Z,974.07
2019-03-25T05:11:14.191Z,973.98
2019-03-25T05:12:14.216Z,973.93
2019-03-25T05:13:14.180Z,973.79
2019-03-25T05:14:14.176Z,973.73
2019-03-25T05:15:14.170Z,973.82
2019-03-25T05:16:14.163Z,973.71
2019-03-25T05:17:14.190Z,973.65
2019-03-25T05:18:14.152Z,973.58
2019-03-25T05:19:14.150Z,973.60
2019-03-25T05:20:14.146Z,973.67
2019-03-25T05:21:14.139Z,973.70
2019-03-25T05:22:14.163Z,973.70
2019-03-25T05:23:14.133Z,973.66
2019-03-25T05:24:14.128Z,973.69
2019-03-25T05:25:14.118Z,973.71
2019-03-25T05:26:14.114Z,973.78
2019-03-25T05:27:14.142Z,973.93
2019-03-25T05:28:14.122Z,973.96
2019-03-25T05:29:14.095Z,974.00
2019-03-25T05:30:14.105Z,974.00
2019-03-25T05:31:14.131Z,973.98
2019-03-25T05:32:14.120Z,974.00
2019-03-25T05:33:14.083Z,974.05
2019-03-25T05:34:14.093Z,974.03
2019-03-25T05:35:14.078Z,973.98
2019-03-25T05:36:14.071Z,974.00
2019-03-25T05:37:14.094Z,973.96
2019-03-25T05:38:14.059Z,973.91
2019-03-25T05:39:14.054Z,973.88
2019-03-25T05:40:14.058Z,973.86
2019-03-25T05:41:14.042Z,973.89
2019-03-25T05:42:14.071Z,973.90
2019-03-25T05:43:14.037Z,973.88
2019-03-25T05:44:14.035Z,973.86
2019-03-25T05:45:14.025Z,973.91
2019-03-25T05:46:14.021Z,973.88
2019-03-25T05:47:14.037Z,973.90
2019-03-25T05:48:14.018Z,973.89
2019-03-25T05:49:14.005Z,973.91
2019-03-25T05:50:14.001Z,973.91
2019-03-25T05:51:13.996Z,973.96
2019-03-25T05:52:14.018Z,974.02
2019-03-25T05:53:13.989Z,974.05
2019-03-25T05:54:13.985Z,974.01
2019-03-25T05:55:13.983Z,973.94
2019-03-25T05:56:13.974Z,973.90
2019-03-25T05:57:13.997Z,973.82
2019-03-25T05:58:13.967Z,973.91
2019-03-25T05:59:13.961Z,973.92
2019-03-25T06:00:13.956Z,973.94
2019-03-25T06:01:13.955Z,973.84
2019-03-25T06:02:13.978Z,973.75
2019-03-25T06:03:13.947Z,973.70
2019-03-25T06:04:13.943Z,973.70
2019-03-25T06:05:13.940Z,973.69
2019-03-25T06:06:14.793Z,973.72
2019-03-25T06:07:13.952Z,973.67
2019-03-25T06:08:13.921Z,973.71
2019-03-25T06:09:13.958Z,973.75
2019-03-25T06:10:13.917Z,973.79
2019-03-25T06:11:13.908Z,973.79
2019-03-25T06:12:13.927Z,973.74
2019-03-25T06:13:13.896Z,973.72
2019-03-25T06:14:13.893Z,973.77
2019-03-25T06:15:13.889Z,973.72
2019-03-25T06:16:13.890Z,973.73
2019-03-25T06:17:13.912Z,973.69
2019-03-25T06:18:13.905Z,973.75
2019-03-25T06:19:13.873Z,973.76
2019-03-25T06:20:13.867Z,973.76
2019-03-25T06:21:13.862Z,973.79
2019-03-25T06:22:13.859Z,973.83
2019-03-25T06:23:13.885Z,973.80
2019-03-25T06:24:13.845Z,973.73
2019-03-25T06:25:13.844Z,973.69
2019-03-25T06:26:13.995Z,973.70
2019-03-25T06:27:14.641Z,973.64
2019-03-25T06:28:13.860Z,973.58
2019-03-25T06:29:13.830Z,973.65
2019-03-25T06:30:13.824Z,973.64
2019-03-25T06:31:13.816Z,973.58
2019-03-25T06:32:13.812Z,973.64
2019-03-25T06:33:13.835Z,973.67
2019-03-25T06:34:13.800Z,973.63
2019-03-25T06:35:13.813Z,973.72
2019-03-25T06:36:13.795Z,973.67
2019-03-25T06:37:13.792Z,973.68
2019-03-25T06:38:13.816Z,973.71
2019-03-25T06:39:13.811Z,973.66
2019-03-25T06:40:13.780Z,973.64
2019-03-25T06:41:13.775Z,973.58
2019-03-25T06:42:13.768Z,973.61
2019-03-25T06:43:13.771Z,973.60
2019-03-25T06:44:13.788Z,973.64
2019-03-25T06:45:13.761Z,973.61
2019-03-25T06:46:13.825Z,973.60
2019-03-25T06:47:13.754Z,973.68
2019-03-25T06:48:13.742Z,973.64
2019-03-25T06:49:13.768Z,973.67
2019-03-25T06:50:13.737Z,973.62
2019-03-25T06:51:13.732Z,973.59
2019-03-25T06:52:13.727Z,973.66
2019-03-25T06:53:13.731Z,973.80
2019-03-25T06:54:13.752Z,973.90
2019-03-25T06:55:13.720Z,973.61
2019-03-25T06:56:13.711Z,973.74
2019-03-25T06:57:24.982Z,973.72
2019-03-25T06:58:13.702Z,973.64
2019-03-25T06:59:13.724Z,973.63
2019-03-25T07:00:13.705Z,973.64
2019-03-25T07:01:13.695Z,973.62
2019-03-25T07:02:13.692Z,973.56
2019-03-25T07:03:13.684Z,973.53
2019-03-25T07:04:13.712Z,973.53
2019-03-25T07:05:13.683Z,973.56
2019-03-25T07:06:13.774Z,973.51
2019-03-25T07:07:13.671Z,973.54
2019-03-25T07:08:13.673Z,973.57
2019-03-25T07:09:13.699Z,973.50
2019-03-25T07:10:13.662Z,973.51
2019-03-25T07:11:13.668Z,973.52
2019-03-25T07:12:13.650Z,973.49
2019-03-25T07:13:13.656Z,973.53
2019-03-25T07:14:13.679Z,973.51
2019-03-25T07:15:13.650Z,973.53
2019-03-25T07:16:13.644Z,973.49
2019-03-25T07:17:13.635Z,973.42
2019-03-25T07:18:13.634Z,973.50
2019-03-25T07:19:13.664Z,973.46
2019-03-25T07:20:13.630Z,973.48
2019-03-25T07:21:13.622Z,973.48
2019-03-25T07:22:13.618Z,973.46
2019-03-25T07:23:13.618Z,973.54
2019-03-25T07:24:13.638Z,973.51
2019-03-25T07:25:13.610Z,973.56
2019-03-25T07:26:13.607Z,973.60
2019-03-25T07:27:13.602Z,973.58
2019-03-25T07:28:13.600Z,973.56
2019-03-25T07:29:13.619Z,973.55
2019-03-25T07:30:13.591Z,973.54
2019-03-25T07:31:13.590Z,973.53
2019-03-25T07:32:13.582Z,973.60
2019-03-25T07:33:13.580Z,973.55
2019-03-25T07:34:13.605Z,973.55
2019-03-25T07:35:13.569Z,973.52
2019-03-25T07:36:13.570Z,973.63
2019-03-25T07:37:13.564Z,973.57
2019-03-25T07:38:13.557Z,973.62
2019-03-25T07:39:13.584Z,973.59
2019-03-25T07:40:13.545Z,973.56
2019-03-25T07:41:13.551Z,973.50
2019-03-25T07:42:13.545Z,973.56
2019-03-25T07:43:13.541Z,973.58
2019-03-25T07:44:13.571Z,973.53
2019-03-25T07:45:13.529Z,973.56
2019-03-25T07:46:13.525Z,973.56
2019-03-25T07:47:13.525Z,973.50
2019-03-25T07:48:13.517Z,973.58
2019-03-25T07:49:13.545Z,973.53
2019-03-25T07:50:13.535Z,973.50
2019-03-25T07:51:13.511Z,973.56
2019-03-25T07:52:13.501Z,973.61
2019-03-25T07:53:13.509Z,973.59
2019-03-25T07:54:13.497Z,973.52
2019-03-25T07:55:13.521Z,973.52
2019-03-25T07:56:13.507Z,973.54
2019-03-25T07:57:13.485Z,973.54
2019-03-25T07:58:13.491Z,973.56
2019-03-25T07:59:13.473Z,973.50
2019-03-25T08:00:14.155Z,973.56
2019-03-25T08:01:13.490Z,973.53
2019-03-25T08:02:15.250Z,973.49
2019-03-25T08:03:13.461Z,973.44
2019-03-25T08:04:13.454Z,973.48
2019-03-25T08:05:13.473Z,973.53
2019-03-25T08:06:13.455Z,973.51
2019-03-25T08:07:13.436Z,973.44
2019-03-25T08:08:13.440Z,973.50
2019-03-25T08:09:13.458Z,973.44
2019-03-25T08:10:13.479Z,973.46
2019-03-25T08:11:13.441Z,973.50
2019-03-25T08:12:13.447Z,973.52
2019-03-25T08:13:13.480Z,973.55
2019-03-25T08:14:13.413Z,973.52
2019-03-25T08:15:13.448Z,973.52
2019-03-25T08:16:13.400Z,973.50
2019-03-25T08:17:13.397Z,973.64
2019-03-25T08:18:13.394Z,973.64
2019-03-25T08:19:13.392Z,973.73
2019-03-25T08:20:13.408Z,973.71
2019-03-25T08:21:13.376Z,973.82
2019-03-25T08:22:13.378Z,973.82
2019-03-25T08:23:13.372Z,973.83
2019-03-25T08:24:13.366Z,973.87
2019-03-25T08:25:13.396Z,973.97
2019-03-25T08:26:13.400Z,974.05
2019-03-25T08:27:13.356Z,974.29
2019-03-25T08:28:13.352Z,974.15
2019-03-25T08:29:13.351Z,974.57
2019-03-25T08:30:13.377Z,974.65
2019-03-25T08:31:13.344Z,974.74
2019-03-25T08:32:13.339Z,974.70
2019-03-25T08:33:13.336Z,974.66
2019-03-25T08:34:13.338Z,974.50
2019-03-25T08:35:13.359Z,974.41
2019-03-25T08:36:13.332Z,974.30
2019-03-25T08:37:13.331Z,974.28
2019-03-25T08:38:13.327Z,974.35
2019-03-25T08:39:13.332Z,974.26
2019-03-25T08:40:13.355Z,974.22
2019-03-25T08:41:13.328Z,974.20
2019-03-25T08:42:13.327Z,974.27
2019-03-25T08:43:13.324Z,974.43
2019-03-25T08:44:13.325Z,974.39
2019-03-25T08:45:13.351Z,974.41
2019-03-25T08:46:13.322Z,974.41
2019-03-25T08:47:13.319Z,974.63
2019-03-25T08:48:13.318Z,974.68
2019-03-25T08:49:13.320Z,974.67
2019-03-25T08:50:13.344Z,974.57
2019-03-25T08:51:13.339Z,974.71
2019-03-25T08:52:13.313Z,974.70
2019-03-25T08:53:13.311Z,974.69
2019-03-25T08:54:13.307Z,974.70
2019-03-25T08:55:13.308Z,975.13
2019-03-25T08:56:13.335Z,975.14
2019-03-25T08:57:13.310Z,974.99
2019-03-25T08:58:13.306Z,974.86
2019-03-25T08:59:13.306Z,974.85
2019-03-25T09:00:13.303Z,974.81
2019-03-25T09:01:13.331Z,974.78
2019-03-25T09:02:13.307Z,974.83
2019-03-25T09:03:13.302Z,974.76
2019-03-25T09:04:13.303Z,974.72
2019-03-25T09:05:13.309Z,974.75
2019-03-25T09:06:13.330Z,974.75
2019-03-25T09:07:13.304Z,974.72
2019-03-25T09:08:13.298Z,974.71
2019-03-25T09:09:13.298Z,974.67
2019-03-25T09:10:13.299Z,974.75
2019-03-25T09:11:13.323Z,974.77
2019-03-25T09:12:13.294Z,974.82
2019-03-25T09:13:13.294Z,974.75
2019-03-25T09:14:13.291Z,974.83
2019-03-25T09:15:13.291Z,974.84
2019-03-25T09:16:13.311Z,974.95
2019-03-25T09:17:13.287Z,975.00
2019-03-25T09:18:13.286Z,975.03
2019-03-25T09:19:13.287Z,975.05
2019-03-25T09:20:13.286Z,975.06
2019-03-25T09:21:13.311Z,975.05
2019-03-25T09:22:13.283Z,974.87
2019-03-25T09:23:13.282Z,974.90
2019-03-25T09:24:13.279Z,975.33
2019-03-25T09:25:13.284Z,975.04
2019-03-25T09:26:13.302Z,975.01
2019-03-25T09:27:13.287Z,975.08
2019-03-25T09:28:23.802Z,975.05
2019-03-25T09:29:13.272Z,975.10
2019-03-25T09:30:13.271Z,975.11
2019-03-25T09:31:13.303Z,975.13
2019-03-25T09:32:13.272Z,975.15
2019-03-25T09:33:13.267Z,975.18
2019-03-25T09:34:13.272Z,975.22
2019-03-25T09:35:13.302Z,975.21
2019-03-25T09:36:13.268Z,975.21
2019-03-25T09:37:13.314Z,975.25
2019-03-25T09:38:13.262Z,975.29
2019-03-25T09:39:13.261Z,975.28
2019-03-25T09:40:13.264Z,975.34
2019-03-25T09:41:13.291Z,975.29
2019-03-25T09:42:13.258Z,975.32
2019-03-25T09:43:13.254Z,975.29
2019-03-25T09:44:13.257Z,975.25
2019-03-25T09:45:13.257Z,975.30
2019-03-25T09:46:13.406Z,975.36
2019-03-25T09:47:13.255Z,975.40
2019-03-25T09:48:13.260Z,975.34
2019-03-25T09:49:13.253Z,975.71
2019-03-25T09:50:13.254Z,975.43
2019-03-25T09:51:13.285Z,975.43
2019-03-25T09:52:13.257Z,975.42
2019-03-25T09:53:13.253Z,975.41
2019-03-25T09:54:13.255Z,975.67
2019-03-25T09:55:13.260Z,975.68
2019-03-25T09:56:13.286Z,975.56
2019-03-25T09:57:13.286Z,975.58
2019-03-25T09:58:13.257Z,975.67
2019-03-25T09:59:13.262Z,975.53
2019-03-25T10:00:13.261Z,975.38
2019-03-25T10:01:13.266Z,975.68
2019-03-25T10:02:13.295Z,975.69
2019-03-25T10:03:13.268Z,975.44
2019-03-25T10:04:13.273Z,975.71
2019-03-25T10:05:13.277Z,975.67
2019-03-25T10:06:13.309Z,975.49
2019-03-25T10:07:13.309Z,975.65
2019-03-25T10:08:13.289Z,975.70
2019-03-25T10:09:13.294Z,975.71
2019-03-25T10:10:13.304Z,975.71
2019-03-25T10:11:13.336Z,975.70
2019-03-25T10:12:13.309Z,975.72
2019-03-25T10:13:13.324Z,975.57
2019-03-25T10:14:13.329Z,975.31
2019-03-25T10:15:13.329Z,975.67
2019-03-25T10:16:13.360Z,975.39
2019-03-25T10:17:13.339Z,975.53
2019-03-25T10:18:13.348Z,975.70
2019-03-25T10:19:13.355Z,975.65
2019-03-25T10:20:13.360Z,975.66
2019-03-25T10:21:13.400Z,975.68
2019-03-25T10:22:13.375Z,975.63
2019-03-25T10:23:13.383Z,975.60
2019-03-25T10:24:13.406Z,975.65
2019-03-25T10:25:13.396Z,975.71
2019-03-25T10:26:13.439Z,975.37
2019-03-25T10:27:13.440Z,975.37
2019-03-25T10:28:13.427Z,975.52
2019-03-25T10:29:13.428Z,975.65
2019-03-25T10:30:13.434Z,975.64
2019-03-25T10:31:13.479Z,975.61
2019-03-25T10:32:13.477Z,975.61
2019-03-25T10:33:13.462Z,975.58
2019-03-25T10:34:13.464Z,975.64
2019-03-25T10:35:13.472Z,975.61
2019-03-25T10:36:13.479Z,975.62
2019-03-25T10:37:13.518Z,975.56
2019-03-25T10:38:19.590Z,975.65
2019-03-25T10:39:13.506Z,975.35
2019-03-25T10:40:13.507Z,975.30
2019-03-25T10:41:13.554Z,975.33
2019-03-25T10:42:13.552Z,975.69
2019-03-25T10:43:13.539Z,975.64
2019-03-25T10:44:13.607Z,975.21
2019-03-25T10:45:13.587Z,975.25
2019-03-25T10:46:13.566Z,975.26
2019-03-25T10:47:13.556Z,975.23
2019-03-25T10:48:13.597Z,975.21
2019-03-25T10:49:16.099Z,975.24
2019-03-25T10:50:13.572Z,975.23
2019-03-25T10:51:13.576Z,975.43
2019-03-25T10:52:13.608Z,975.18
2019-03-25T10:53:13.603Z,975.18
2019-03-25T10:54:13.580Z,975.15
2019-03-25T10:55:13.600Z,975.05
2019-03-25T10:56:13.591Z,975.05
2019-03-25T10:57:13.598Z,975.02
2019-03-25T10:58:13.625Z,975.03
2019-03-25T10:59:13.600Z,975.04
2019-03-25T11:00:13.601Z,975.06
2019-03-25T11:01:13.600Z,975.05
2019-03-25T11:02:13.604Z,975.03
2019-03-25T11:03:13.635Z,975.00
2019-03-25T11:04:13.607Z,975.01
2019-03-25T11:05:13.616Z,974.97
2019-03-25T11:06:13.615Z,975.16
2019-03-25T11:07:13.626Z,975.25
2019-03-25T11:08:13.642Z,975.06
2019-03-25T11:09:13.629Z,975.44
2019-03-25T11:10:13.619Z,975.06
2019-03-25T11:11:13.620Z,975.08
2019-03-25T11:12:13.643Z,974.99
2019-03-25T11:13:13.647Z,974.95
2019-03-25T11:14:13.625Z,974.85
2019-03-25T11:15:13.630Z,974.83
2019-03-25T11:16:13.631Z,974.89
2019-03-25T11:17:13.627Z,974.86
2019-03-25T11:18:13.658Z,974.79
2019-03-25T11:19:13.636Z,974.83
2019-03-25T11:20:13.651Z,974.79
2019-03-25T11:21:13.639Z,974.75
2019-03-25T11:22:13.640Z,974.78
2019-03-25T11:23:13.667Z,974.80
2019-03-25T11:24:15.163Z,974.78
2019-03-25T11:25:13.651Z,974.94
2019-03-25T11:26:13.860Z,974.98
2019-03-25T11:27:13.651Z,974.93
2019-03-25T11:28:13.678Z,974.99
2019-03-25T11:29:13.647Z,974.86
2019-03-25T11:30:13.652Z,974.81
2019-03-25T11:31:13.643Z,974.83
2019-03-25T11:32:13.645Z,974.96
2019-03-25T11:33:13.675Z,974.89
2019-03-25T11:34:13.652Z,975.10
2019-03-25T11:35:13.657Z,974.74
2019-03-25T11:36:13.655Z,974.82
2019-03-25T11:37:13.656Z,974.67
2019-03-25T11:38:13.693Z,974.62
2019-03-25T11:39:13.663Z,974.56
2019-03-25T11:40:13.662Z,974.49
2019-03-25T11:41:13.668Z,974.56
2019-03-25T11:42:13.668Z,974.51
2019-03-25T11:43:13.672Z,974.54
2019-03-25T11:44:13.697Z,974.60
2019-03-25T11:45:13.674Z,974.61
2019-03-25T11:46:13.681Z,974.60
2019-03-25T11:47:13.675Z,974.70
2019-03-25T11:48:13.678Z,974.61
2019-03-25T11:49:13.707Z,974.71
2019-03-25T11:50:13.679Z,974.70
2019-03-25T11:51:13.679Z,974.72
2019-03-25T11:52:13.679Z,974.70
2019-03-25T11:53:13.674Z,974.66
2019-03-25T11:54:13.700Z,974.68
2019-03-25T11:55:13.686Z,974.66
2019-03-25T11:56:13.679Z,974.60
2019-03-25T11:57:13.682Z,974.61
2019-03-25T11:58:13.680Z,974.56
2019-03-25T11:59:18.575Z,974.71
2019-03-25T12:00:13.680Z,974.69
2019-03-25T12:01:13.681Z,974.76
2019-03-25T12:02:17.513Z,974.76
2019-03-25T12:03:13.680Z,974.62
2019-03-25T12:04:13.711Z,974.58
2019-03-25T12:05:13.688Z,974.67
2019-03-25T12:06:13.692Z,974.42
2019-03-25T12:07:13.688Z,974.43
2019-03-25T12:08:13.698Z,974.42
2019-03-25T12:09:13.723Z,974.32
2019-03-25T12:10:13.987Z,974.39
2019-03-25T12:11:13.704Z,974.36
2019-03-25T12:12:13.707Z,974.32
2019-03-25T12:13:13.708Z,974.29
2019-03-25T12:14:13.740Z,974.25
2019-03-25T12:15:13.712Z,974.36
2019-03-25T12:16:13.712Z,974.28
2019-03-25T12:17:13.716Z,974.31
2019-03-25T12:18:13.749Z,974.30
2019-03-25T12:19:13.753Z,974.28
2019-03-25T12:20:13.720Z,974.31
2019-03-25T12:21:14.331Z,974.44
2019-03-25T12:22:13.717Z,974.29
2019-03-25T12:23:14.333Z,974.24
2019-03-25T12:24:13.752Z,974.26
2019-03-25T12:25:13.719Z,974.28
2019-03-25T12:26:13.727Z,974.25
2019-03-25T12:27:13.754Z,974.27
2019-03-25T12:28:13.728Z,974.38